createdAt,value
2018-11-07T00:00:41.271Z,7.17
2018-11-07T00:01:41.300Z,7.27
2018-11-07T00:02:41.372Z,7.30
2018-11-07T00:03:41.352Z,7.32
2018-11-07T00:04:41.383Z,7.25
2018-11-07T00:05:41.406Z,7.28
2018-11-07T00:06:41.432Z,7.28
2018-11-07T00:07:41.462Z,7.31
2018-11-07T00:08:41.486Z,7.06
2018-11-07T00:09:41.513Z,6.99
2018-11-07T00:10:41.539Z,6.94
2018-11-07T00:11:41.566Z,6.77
2018-11-07T00:12:41.594Z,6.87
2018-11-07T00:13:41.621Z,6.95
2018-11-07T00:14:41.646Z,6.94
2018-11-07T00:15:41.674Z,6.85
2018-11-07T00:16:41.699Z,6.80
2018-11-07T00:17:41.728Z,6.79
2018-11-07T00:18:41.753Z,6.80
2018-11-07T00:19:41.780Z,6.84
2018-11-07T00:20:41.807Z,6.91
2018-11-07T00:21:41.834Z,7.02
2018-11-07T00:22:41.860Z,7.02
2018-11-07T00:23:41.887Z,7.06
2018-11-07T00:24:41.914Z,7.13
2018-11-07T00:25:41.941Z,7.12
2018-11-07T00:26:41.969Z,7.17
2018-11-07T00:27:41.994Z,7.13
2018-11-07T00:28:42.021Z,7.21
2018-11-07T00:29:42.049Z,7.16
2018-11-07T00:30:42.075Z,7.21
2018-11-07T00:31:42.101Z,7.16
2018-11-07T00:32:42.130Z,7.31
2018-11-07T00:33:42.156Z,7.23
2018-11-07T00:34:42.184Z,7.28
2018-11-07T00:35:42.209Z,7.24
2018-11-07T00:36:42.237Z,7.24
2018-11-07T00:37:42.262Z,7.30
2018-11-07T00:38:42.289Z,7.24
2018-11-07T00:39:42.366Z,7.20
2018-11-07T00:40:42.342Z,7.20
2018-11-07T00:41:42.370Z,7.30
2018-11-07T00:42:42.396Z,7.21
2018-11-07T00:43:42.422Z,7.25
2018-11-07T00:44:42.451Z,7.27
2018-11-07T00:45:42.478Z,7.25
2018-11-07T00:46:42.502Z,7.16
2018-11-07T00:47:42.531Z,7.20
2018-11-07T00:48:42.557Z,7.17
2018-11-07T00:49:42.586Z,7.13
2018-11-07T00:50:42.609Z,7.28
2018-11-07T00:51:42.636Z,7.15
2018-11-07T00:52:42.663Z,7.17
2018-11-07T00:53:42.698Z,7.21
2018-11-07T00:54:42.716Z,7.09
2018-11-07T00:55:42.742Z,7.20
2018-11-07T00:56:42.771Z,7.15
2018-11-07T00:57:42.798Z,7.17
2018-11-07T00:58:42.822Z,7.32
2018-11-07T00:59:42.850Z,7.17
2018-11-07T01:00:42.878Z,7.03
2018-11-07T01:01:42.904Z,6.91
2018-11-07T01:02:42.930Z,6.88
2018-11-07T01:03:42.957Z,6.80
2018-11-07T01:04:42.985Z,6.77
2018-11-07T01:05:43.012Z,6.71
2018-11-07T01:06:43.037Z,6.67
2018-11-07T01:07:43.071Z,6.62
2018-11-07T01:08:43.092Z,6.73
2018-11-07T01:09:43.291Z,6.66
2018-11-07T01:10:43.144Z,6.62
2018-11-07T01:11:43.173Z,6.71
2018-11-07T01:12:43.197Z,6.79
2018-11-07T01:13:43.223Z,6.74
2018-11-07T01:14:43.249Z,6.79
2018-11-07T01:15:43.276Z,6.87
2018-11-07T01:16:43.409Z,6.80
2018-11-07T01:17:43.329Z,6.81
2018-11-07T01:18:43.356Z,6.91
2018-11-07T01:19:43.382Z,6.87
2018-11-07T01:20:43.414Z,6.87
2018-11-07T01:21:43.437Z,6.94
2018-11-07T01:22:43.461Z,6.92
2018-11-07T01:23:43.490Z,6.77
2018-11-07T01:24:43.516Z,6.92
2018-11-07T01:25:43.542Z,6.88
2018-11-07T01:26:43.568Z,6.79
2018-11-07T01:27:43.596Z,6.77
2018-11-07T01:28:43.622Z,6.81
2018-11-07T01:29:43.650Z,6.80
2018-11-07T01:30:43.676Z,6.88
2018-11-07T01:31:43.701Z,6.88
2018-11-07T01:32:43.730Z,6.89
2018-11-07T01:33:43.757Z,6.79
2018-11-07T01:34:43.781Z,6.61
2018-11-07T01:35:43.807Z,6.55
2018-11-07T01:36:43.836Z,6.54
2018-11-07T01:37:43.863Z,6.56
2018-11-07T01:38:43.887Z,6.55
2018-11-07T01:39:43.916Z,6.44
2018-11-07T01:40:43.941Z,6.37
2018-11-07T01:41:44.007Z,6.41
2018-11-07T01:42:43.994Z,6.36
2018-11-07T01:43:44.021Z,6.37
2018-11-07T01:44:44.049Z,6.22
2018-11-07T01:45:44.076Z,6.30
2018-11-07T01:46:44.100Z,6.27
2018-11-07T01:47:44.127Z,6.28
2018-11-07T01:48:44.155Z,6.18
2018-11-07T01:49:44.184Z,6.22
2018-11-07T01:50:44.206Z,6.25
2018-11-07T01:51:44.232Z,6.11
2018-11-07T01:52:44.259Z,6.28
2018-11-07T01:53:44.286Z,6.37
2018-11-07T01:54:44.312Z,6.40
2018-11-07T01:55:44.337Z,6.40
2018-11-07T01:56:44.365Z,6.46
2018-11-07T01:57:44.393Z,6.41
2018-11-07T01:58:44.418Z,6.44
2018-11-07T01:59:44.444Z,6.40
2018-11-07T02:00:44.470Z,6.36
2018-11-07T02:01:44.498Z,6.38
2018-11-07T02:02:44.523Z,6.44
2018-11-07T02:03:44.550Z,6.49
2018-11-07T02:04:44.576Z,6.44
2018-11-07T02:05:44.603Z,6.54
2018-11-07T02:06:44.630Z,6.44
2018-11-07T02:07:44.656Z,6.52
2018-11-07T02:08:44.682Z,6.52
2018-11-07T02:09:44.711Z,6.55
2018-11-07T02:10:44.736Z,6.56
2018-11-07T02:11:44.763Z,6.61
2018-11-07T02:12:44.793Z,6.61
2018-11-07T02:13:44.816Z,6.54
2018-11-07T02:14:44.840Z,6.62
2018-11-07T02:15:44.868Z,6.51
2018-11-07T02:16:44.896Z,6.73
2018-11-07T02:17:44.930Z,6.54
2018-11-07T02:18:44.947Z,6.58
2018-11-07T02:19:44.973Z,6.59
2018-11-07T02:20:45.000Z,6.58
2018-11-07T02:21:45.028Z,6.56
2018-11-07T02:22:45.053Z,6.64
2018-11-07T02:23:45.079Z,6.55
2018-11-07T02:24:45.110Z,6.59
2018-11-07T02:25:45.135Z,6.64
2018-11-07T02:26:45.159Z,6.62
2018-11-07T02:27:45.189Z,6.58
2018-11-07T02:28:45.211Z,6.59
2018-11-07T02:29:45.238Z,6.58
2018-11-07T02:30:45.264Z,6.70
2018-11-07T02:31:45.293Z,6.76
2018-11-07T02:32:45.317Z,6.79
2018-11-07T02:33:45.350Z,6.71
2018-11-07T02:34:45.371Z,6.69
2018-11-07T02:35:45.397Z,6.71
2018-11-07T02:36:45.485Z,6.71
2018-11-07T02:37:45.453Z,6.73
2018-11-07T02:38:45.477Z,6.80
2018-11-07T02:39:45.503Z,6.74
2018-11-07T02:40:45.530Z,6.88
2018-11-07T02:41:45.645Z,6.80
2018-11-07T02:42:45.582Z,6.92
2018-11-07T02:43:45.609Z,6.91
2018-11-07T02:44:45.636Z,6.92
2018-11-07T02:45:45.663Z,6.88
2018-11-07T02:46:45.690Z,6.99
2018-11-07T02:47:45.715Z,6.99
2018-11-07T02:48:45.741Z,6.94
2018-11-07T02:49:45.768Z,6.99
2018-11-07T02:50:45.795Z,6.92
2018-11-07T02:51:45.821Z,6.89
2018-11-07T02:52:45.848Z,6.87
2018-11-07T02:53:45.874Z,6.95
2018-11-07T02:54:45.899Z,6.87
2018-11-07T02:55:45.928Z,6.80
2018-11-07T02:56:45.954Z,6.76
2018-11-07T02:57:45.980Z,6.69
2018-11-07T02:58:46.006Z,6.67
2018-11-07T02:59:46.033Z,6.69
2018-11-07T03:00:46.059Z,6.76
2018-11-07T03:01:46.085Z,6.77
2018-11-07T03:02:46.112Z,6.87
2018-11-07T03:03:46.139Z,6.88
2018-11-07T03:04:46.165Z,6.79
2018-11-07T03:05:46.193Z,6.92
2018-11-07T03:06:46.218Z,6.97
2018-11-07T03:07:46.247Z,6.89
2018-11-07T03:08:46.274Z,6.73
2018-11-07T03:09:46.300Z,6.85
2018-11-07T03:10:46.473Z,6.87
2018-11-07T03:11:46.352Z,6.91
2018-11-07T03:12:46.378Z,6.84
2018-11-07T03:13:46.407Z,6.95
2018-11-07T03:14:46.431Z,6.80
2018-11-07T03:15:46.458Z,6.74
2018-11-07T03:16:46.484Z,6.70
2018-11-07T03:17:46.511Z,6.87
2018-11-07T03:18:46.540Z,6.85
2018-11-07T03:19:46.564Z,6.91
2018-11-07T03:20:46.592Z,6.88
2018-11-07T03:21:46.622Z,6.84
2018-11-07T03:22:46.645Z,6.91
2018-11-07T03:23:46.673Z,6.79
2018-11-07T03:24:46.700Z,6.89
2018-11-07T03:25:46.726Z,6.88
2018-11-07T03:26:46.752Z,6.97
2018-11-07T03:27:46.780Z,6.99
2018-11-07T03:28:46.805Z,6.95
2018-11-07T03:29:46.833Z,7.06
2018-11-07T03:30:46.859Z,7.03
2018-11-07T03:31:46.886Z,6.97
2018-11-07T03:32:46.913Z,6.91
2018-11-07T03:33:46.943Z,6.91
2018-11-07T03:34:46.965Z,7.02
2018-11-07T03:35:46.992Z,7.05
2018-11-07T03:36:47.020Z,6.99
2018-11-07T03:37:47.047Z,7.16
2018-11-07T03:38:47.073Z,7.27
2018-11-07T03:39:47.130Z,7.32
2018-11-07T03:40:47.128Z,7.31
2018-11-07T03:41:47.154Z,7.35
2018-11-07T03:42:47.184Z,7.31
2018-11-07T03:43:47.207Z,7.24
2018-11-07T03:44:47.234Z,7.25
2018-11-07T03:45:47.262Z,7.27
2018-11-07T03:46:47.288Z,7.23
2018-11-07T03:47:47.317Z,7.16
2018-11-07T03:48:47.343Z,7.16
2018-11-07T03:49:47.371Z,7.20
2018-11-07T03:50:47.396Z,7.17
2018-11-07T03:51:47.423Z,7.21
2018-11-07T03:52:47.450Z,7.17
2018-11-07T03:53:47.482Z,7.15
2018-11-07T03:54:47.506Z,7.20
2018-11-07T03:55:47.531Z,7.21
2018-11-07T03:56:47.558Z,7.23
2018-11-07T03:57:47.588Z,7.20
2018-11-07T03:58:47.612Z,7.21
2018-11-07T03:59:47.639Z,7.20
2018-11-07T04:00:47.667Z,7.15
2018-11-07T04:01:47.693Z,7.23
2018-11-07T04:02:47.720Z,7.17
2018-11-07T04:03:47.746Z,7.15
2018-11-07T04:04:47.775Z,7.17
2018-11-07T04:05:47.801Z,7.21
2018-11-07T04:06:47.828Z,7.25
2018-11-07T04:07:47.855Z,7.15
2018-11-07T04:08:47.883Z,7.17
2018-11-07T04:09:47.909Z,7.17
2018-11-07T04:10:47.934Z,7.23
2018-11-07T04:11:47.962Z,7.17
2018-11-07T04:12:47.989Z,7.20
2018-11-07T04:13:48.017Z,7.27
2018-11-07T04:14:48.044Z,7.15
2018-11-07T04:15:48.075Z,7.27
2018-11-07T04:16:48.099Z,7.20
2018-11-07T04:17:48.125Z,7.31
2018-11-07T04:18:48.150Z,7.23
2018-11-07T04:19:48.177Z,7.21
2018-11-07T04:20:48.212Z,7.30
2018-11-07T04:21:48.231Z,7.24
2018-11-07T04:22:48.256Z,7.23
2018-11-07T04:23:48.288Z,7.20
2018-11-07T04:24:48.311Z,7.21
2018-11-07T04:25:48.338Z,6.99
2018-11-07T04:26:48.365Z,7.20
2018-11-07T04:27:48.392Z,7.16
2018-11-07T04:28:48.421Z,7.15
2018-11-07T04:29:48.445Z,7.15
2018-11-07T04:30:48.473Z,7.23
2018-11-07T04:31:48.499Z,7.30
2018-11-07T04:32:48.525Z,7.23
2018-11-07T04:33:48.553Z,7.17
2018-11-07T04:34:48.580Z,7.15
2018-11-07T04:35:48.607Z,7.17
2018-11-07T04:36:48.632Z,7.13
2018-11-07T04:37:48.659Z,7.15
2018-11-07T04:38:48.688Z,7.06
2018-11-07T04:39:51.921Z,7.09
2018-11-07T04:40:48.740Z,7.15
2018-11-07T04:41:48.768Z,7.05
2018-11-07T04:42:48.791Z,7.03
2018-11-07T04:43:48.819Z,7.06
2018-11-07T04:44:48.847Z,7.16
2018-11-07T04:45:48.872Z,7.15
2018-11-07T04:46:48.900Z,7.05
2018-11-07T04:47:48.926Z,6.95
2018-11-07T04:48:48.953Z,7.03
2018-11-07T04:49:48.980Z,6.91
2018-11-07T04:50:49.006Z,6.89
2018-11-07T04:51:49.032Z,6.92
2018-11-07T04:52:49.063Z,6.88
2018-11-07T04:53:49.086Z,6.92
2018-11-07T04:54:49.111Z,6.76
2018-11-07T04:55:49.139Z,6.70
2018-11-07T04:56:49.165Z,6.71
2018-11-07T04:57:49.191Z,6.79
2018-11-07T04:58:49.217Z,6.58
2018-11-07T04:59:49.244Z,6.59
2018-11-07T05:00:49.272Z,6.64
2018-11-07T05:01:49.297Z,6.61
2018-11-07T05:02:49.323Z,6.58
2018-11-07T05:03:49.349Z,6.58
2018-11-07T05:04:49.377Z,6.54
2018-11-07T05:05:49.404Z,6.54
2018-11-07T05:06:49.434Z,6.46
2018-11-07T05:07:49.487Z,6.46
2018-11-07T05:08:49.629Z,6.54
2018-11-07T05:09:49.510Z,6.51
2018-11-07T05:10:49.536Z,6.49
2018-11-07T05:11:49.563Z,6.46
2018-11-07T05:12:49.591Z,6.40
2018-11-07T05:13:49.616Z,6.44
2018-11-07T05:14:49.642Z,6.41
2018-11-07T05:15:49.670Z,6.44
2018-11-07T05:16:49.697Z,6.37
2018-11-07T05:17:49.721Z,6.43
2018-11-07T05:18:49.748Z,6.43
2018-11-07T05:19:49.926Z,6.43
2018-11-07T05:20:49.801Z,6.36
2018-11-07T05:21:49.828Z,6.37
2018-11-07T05:22:49.855Z,6.38
2018-11-07T05:23:49.880Z,6.37
2018-11-07T05:24:49.907Z,6.34
2018-11-07T05:25:49.935Z,6.31
2018-11-07T05:26:49.960Z,6.28
2018-11-07T05:27:49.986Z,6.41
2018-11-07T05:28:50.013Z,6.28
2018-11-07T05:29:50.041Z,6.21
2018-11-07T05:30:50.065Z,6.18
2018-11-07T05:31:50.095Z,6.15
2018-11-07T05:32:50.118Z,6.18
2018-11-07T05:33:50.146Z,6.27
2018-11-07T05:34:50.172Z,6.21
2018-11-07T05:35:50.198Z,6.22
2018-11-07T05:36:50.227Z,6.22
2018-11-07T05:37:50.252Z,6.27
2018-11-07T05:38:50.277Z,6.27
2018-11-07T05:39:50.304Z,6.33
2018-11-07T05:40:50.331Z,6.46
2018-11-07T05:41:50.358Z,6.43
2018-11-07T05:42:50.384Z,6.34
2018-11-07T05:43:50.411Z,6.48
2018-11-07T05:44:50.438Z,6.48
2018-11-07T05:45:50.464Z,6.55
2018-11-07T05:46:50.496Z,6.54
2018-11-07T05:47:50.517Z,6.46
2018-11-07T05:48:50.549Z,6.51
2018-11-07T05:49:50.570Z,6.48
2018-11-07T05:50:50.596Z,6.49
2018-11-07T05:51:50.623Z,6.52
2018-11-07T05:52:50.657Z,6.46
2018-11-07T05:53:50.676Z,6.43
2018-11-07T05:54:50.704Z,6.54
2018-11-07T05:55:50.730Z,6.51
2018-11-07T05:56:50.757Z,6.38
2018-11-07T05:57:50.783Z,6.27
2018-11-07T05:58:50.809Z,6.17
2018-11-07T05:59:50.836Z,6.12
2018-11-07T06:00:50.862Z,6.22
2018-11-07T06:01:50.889Z,6.22
2018-11-07T06:02:50.917Z,6.34
2018-11-07T06:03:50.942Z,6.31
2018-11-07T06:04:50.970Z,6.41
2018-11-07T06:05:50.999Z,6.44
2018-11-07T06:06:51.021Z,6.40
2018-11-07T06:07:51.047Z,6.36
2018-11-07T06:08:51.074Z,6.33
2018-11-07T06:09:51.100Z,6.31
2018-11-07T06:10:51.127Z,6.25
2018-11-07T06:11:51.154Z,6.31
2018-11-07T06:12:51.180Z,6.28
2018-11-07T06:13:51.206Z,6.21
2018-11-07T06:14:51.231Z,6.30
2018-11-07T06:15:51.258Z,6.28
2018-11-07T06:16:51.286Z,6.25
2018-11-07T06:17:51.313Z,6.25
2018-11-07T06:18:51.337Z,6.19
2018-11-07T06:19:51.365Z,6.22
2018-11-07T06:20:51.392Z,6.11
2018-11-07T06:21:51.417Z,6.03
2018-11-07T06:22:51.443Z,6.06
2018-11-07T06:23:51.473Z,6.14
2018-11-07T06:24:51.570Z,6.14
2018-11-07T06:25:51.524Z,6.17
2018-11-07T06:26:54.254Z,6.18
2018-11-07T06:27:51.575Z,6.21
2018-11-07T06:28:51.602Z,6.19
2018-11-07T06:29:51.630Z,6.31
2018-11-07T06:30:51.657Z,6.22
2018-11-07T06:31:51.682Z,6.27
2018-11-07T06:32:51.706Z,6.15
2018-11-07T06:33:51.770Z,6.12
2018-11-07T06:34:51.758Z,6.27
2018-11-07T06:35:51.784Z,6.17
2018-11-07T06:36:51.813Z,6.28
2018-11-07T06:37:51.838Z,6.09
2018-11-07T06:38:51.864Z,6.19
2018-11-07T06:39:51.891Z,6.14
2018-11-07T06:40:51.917Z,6.11
2018-11-07T06:41:51.943Z,6.15
2018-11-07T06:42:51.968Z,6.25
2018-11-07T06:43:51.998Z,6.28
2018-11-07T06:44:52.021Z,6.25
2018-11-07T06:45:52.051Z,6.34
2018-11-07T06:46:52.074Z,6.33
2018-11-07T06:47:52.102Z,6.37
2018-11-07T06:48:52.129Z,6.36
2018-11-07T06:49:52.153Z,6.31
2018-11-07T06:50:52.178Z,6.25
2018-11-07T06:51:52.204Z,6.33
2018-11-07T06:52:52.264Z,6.34
2018-11-07T06:53:52.257Z,6.34
2018-11-07T06:54:52.284Z,6.46
2018-11-07T06:55:52.352Z,6.51
2018-11-07T06:56:52.337Z,6.49
2018-11-07T06:57:52.367Z,6.56
2018-11-07T06:58:52.388Z,6.84
2018-11-07T06:59:52.416Z,7.30
2018-11-07T07:00:52.442Z,7.69
2018-11-07T07:01:52.468Z,8.07
2018-11-07T07:02:52.493Z,8.71
2018-11-07T07:03:52.519Z,9.17
2018-11-07T07:04:52.546Z,9.54
2018-11-07T07:05:52.578Z,9.79
2018-11-07T07:06:52.599Z,10.22
2018-11-07T07:07:52.625Z,10.34
2018-11-07T07:08:52.653Z,10.66
2018-11-07T07:09:52.683Z,10.92
2018-11-07T07:10:52.707Z,10.86
2018-11-07T07:11:52.733Z,11.03
2018-11-07T07:12:52.760Z,11.18
2018-11-07T07:13:52.787Z,11.44
2018-11-07T07:14:52.816Z,11.54
2018-11-07T07:15:52.842Z,11.70
2018-11-07T07:16:52.866Z,12.20
2018-11-07T07:17:52.927Z,12.62
2018-11-07T07:18:52.921Z,12.72
2018-11-07T07:19:52.947Z,12.95
2018-11-07T07:20:52.975Z,13.10
2018-11-07T07:21:53.006Z,12.95
2018-11-07T07:22:53.055Z,13.15
2018-11-07T07:23:53.057Z,13.52
2018-11-07T07:24:53.086Z,13.70
2018-11-07T07:25:53.112Z,13.77
2018-11-07T07:26:53.140Z,14.18
2018-11-07T07:27:53.168Z,13.59
2018-11-07T07:28:53.196Z,13.69
2018-11-07T07:29:53.298Z,13.77
2018-11-07T07:30:53.251Z,14.15
2018-11-07T07:31:53.307Z,14.10
2018-11-07T07:32:53.318Z,14.24
2018-11-07T07:33:53.337Z,14.78
2018-11-07T07:34:53.364Z,15.10
2018-11-07T07:35:53.393Z,15.71
2018-11-07T07:36:53.422Z,16.15
2018-11-07T07:37:53.451Z,16.52
2018-11-07T07:38:53.483Z,16.96
2018-11-07T07:39:53.509Z,17.30
2018-11-07T07:40:53.537Z,17.28
2018-11-07T07:41:53.569Z,17.58
2018-11-07T07:42:53.598Z,17.72
2018-11-07T07:43:53.625Z,17.87
2018-11-07T07:44:53.655Z,17.97
2018-11-07T07:45:53.698Z,18.11
2018-11-07T07:46:53.715Z,18.33
2018-11-07T07:47:53.745Z,18.60
2018-11-07T07:48:53.775Z,18.62
2018-11-07T07:49:53.804Z,19.07
2018-11-07T07:50:53.834Z,19.04
2018-11-07T07:51:53.864Z,19.21
2018-11-07T07:52:53.944Z,19.16
2018-11-07T07:53:53.923Z,19.47
2018-11-07T07:54:53.957Z,19.63
2018-11-07T07:55:53.983Z,19.63
2018-11-07T07:56:54.021Z,19.51
2018-11-07T07:57:54.057Z,19.39
2018-11-07T07:58:54.075Z,18.88
2018-11-07T07:59:54.107Z,18.66
2018-11-07T08:00:54.138Z,18.30
2018-11-07T08:01:54.169Z,18.21
2018-11-07T08:02:54.200Z,18.30
2018-11-07T08:03:54.268Z,18.32
2018-11-07T08:04:54.262Z,18.72
2018-11-07T08:05:54.293Z,18.65
2018-11-07T08:06:54.389Z,18.70
2018-11-07T08:07:54.355Z,19.14
2018-11-07T08:08:54.389Z,19.13
2018-11-07T08:09:54.421Z,19.02
2018-11-07T08:10:54.451Z,18.57
2018-11-07T08:11:54.483Z,18.50
2018-11-07T08:12:54.515Z,17.92
2018-11-07T08:13:54.561Z,18.75
2018-11-07T08:14:54.579Z,19.04
2018-11-07T08:15:54.612Z,19.61
2018-11-07T08:16:54.645Z,19.55
2018-11-07T08:17:54.677Z,20.10
2018-11-07T08:18:54.710Z,20.23
2018-11-07T08:19:54.742Z,20.39
2018-11-07T08:20:54.775Z,20.39
2018-11-07T08:21:54.809Z,19.69
2018-11-07T08:22:54.842Z,20.11
2018-11-07T08:23:54.877Z,20.55
2018-11-07T08:24:54.910Z,20.73
2018-11-07T08:25:54.949Z,20.64
2018-11-07T08:26:54.975Z,20.77
2018-11-07T08:27:55.010Z,21.29
2018-11-07T08:28:55.046Z,21.29
2018-11-07T08:29:55.078Z,21.59
2018-11-07T08:30:55.224Z,22.06
2018-11-07T08:31:57.349Z,22.24
2018-11-07T08:32:55.180Z,21.90
2018-11-07T08:33:55.214Z,21.65
2018-11-07T08:34:55.254Z,21.88
2018-11-07T08:35:55.284Z,21.82
2018-11-07T08:36:55.320Z,22.02
2018-11-07T08:37:55.355Z,21.21
2018-11-07T08:38:55.390Z,21.84
2018-11-07T08:39:55.425Z,22.28
2018-11-07T08:40:55.461Z,22.43
2018-11-07T08:41:55.495Z,22.33
2018-11-07T08:42:55.533Z,23.36
2018-11-07T08:43:55.566Z,23.38
2018-11-07T08:44:55.604Z,24.02
2018-11-07T08:45:55.639Z,23.72
2018-11-07T08:46:55.678Z,23.12
2018-11-07T08:47:55.735Z,23.35
2018-11-07T08:48:55.748Z,23.19
2018-11-07T08:49:55.784Z,22.97
2018-11-07T08:50:55.821Z,22.70
2018-11-07T08:51:55.858Z,22.14
2018-11-07T08:52:55.894Z,21.56
2018-11-07T08:53:55.933Z,21.88
2018-11-07T08:54:56.010Z,22.27
2018-11-07T08:55:56.007Z,22.43
2018-11-07T08:56:56.045Z,22.77
2018-11-07T08:57:56.082Z,23.05
2018-11-07T08:58:56.118Z,22.91
2018-11-07T08:59:56.161Z,22.75
2018-11-07T09:00:56.194Z,22.72
2018-11-07T09:01:56.242Z,23.39
2018-11-07T09:02:56.270Z,23.16
2018-11-07T09:03:56.326Z,23.54
2018-11-07T09:04:56.348Z,23.79
2018-11-07T09:05:56.386Z,24.35
2018-11-07T09:06:56.423Z,25.25
2018-11-07T09:07:56.462Z,25.69
2018-11-07T09:08:56.501Z,25.82
2018-11-07T09:09:56.542Z,25.69
2018-11-07T09:10:56.577Z,25.90
2018-11-07T09:11:56.663Z,25.98
2018-11-07T09:12:56.656Z,26.75
2018-11-07T09:13:56.698Z,27.54
2018-11-07T09:14:56.736Z,27.97
2018-11-07T09:15:56.809Z,28.03
2018-11-07T09:16:56.816Z,28.43
2018-11-07T09:17:56.855Z,28.68
2018-11-07T09:18:56.895Z,29.00
2018-11-07T09:19:56.977Z,29.18
2018-11-07T09:20:56.974Z,29.46
2018-11-07T09:21:57.014Z,29.37
2018-11-07T09:22:57.054Z,29.08
2018-11-07T09:23:57.094Z,29.16
2018-11-07T09:24:57.136Z,29.18
2018-11-07T09:25:57.178Z,29.12
2018-11-07T09:26:57.217Z,29.06
2018-11-07T09:27:57.259Z,28.22
2018-11-07T09:28:57.312Z,28.41
2018-11-07T09:29:57.339Z,28.46
2018-11-07T09:30:57.379Z,28.40
2018-11-07T09:31:57.470Z,28.36
2018-11-07T09:32:57.463Z,28.68
2018-11-07T09:33:57.504Z,29.31
2018-11-07T09:34:57.546Z,28.03
2018-11-07T09:35:57.588Z,25.85
2018-11-07T09:36:57.628Z,24.18
2018-11-07T09:37:57.669Z,24.53
2018-11-07T09:38:57.710Z,25.91
2018-11-07T09:39:57.795Z,26.94
2018-11-07T09:40:57.795Z,27.32
2018-11-07T09:41:57.835Z,28.64
2018-11-07T09:42:57.876Z,29.16
2018-11-07T09:43:57.918Z,29.60
2018-11-07T09:44:57.963Z,29.68
2018-11-07T09:45:58.006Z,30.02
2018-11-07T09:46:58.044Z,28.74
2018-11-07T09:47:58.096Z,28.46
2018-11-07T09:48:58.133Z,29.34
2018-11-07T09:49:58.173Z,30.02
2018-11-07T09:50:58.214Z,30.38
2018-11-07T09:51:58.257Z,30.34
2018-11-07T09:52:58.302Z,30.89
2018-11-07T09:53:58.488Z,31.19
2018-11-07T09:54:58.388Z,30.80
2018-11-07T09:55:58.429Z,29.42
2018-11-07T09:56:58.474Z,30.17
2018-11-07T09:57:58.517Z,30.43
2018-11-07T09:58:58.560Z,30.64
2018-11-07T09:59:58.605Z,30.69
2018-11-07T10:00:58.879Z,30.39
2018-11-07T10:01:58.692Z,30.37
2018-11-07T10:02:58.735Z,30.51
2018-11-07T10:03:58.783Z,30.13
2018-11-07T10:04:58.824Z,29.30
2018-11-07T10:05:58.872Z,28.03
2018-11-07T10:06:58.913Z,28.77
2018-11-07T10:07:58.969Z,29.43
2018-11-07T10:08:59.003Z,28.27
2018-11-07T10:09:59.098Z,28.18
2018-11-07T10:10:59.091Z,27.99
2018-11-07T10:11:59.135Z,27.00
2018-11-07T10:12:59.181Z,27.54
2018-11-07T10:13:59.226Z,27.34
2018-11-07T10:14:59.271Z,26.01
2018-11-07T10:15:59.317Z,26.05
2018-11-07T10:16:59.361Z,24.87
2018-11-07T10:17:59.408Z,25.30
2018-11-07T10:18:59.451Z,24.90
2018-11-07T10:19:59.498Z,25.21
2018-11-07T10:20:59.543Z,24.35
2018-11-07T10:21:59.589Z,25.69
2018-11-07T10:22:59.635Z,25.21
2018-11-07T10:23:59.677Z,25.38
2018-11-07T10:24:59.723Z,25.24
2018-11-07T10:25:59.768Z,25.92
2018-11-07T10:27:00.003Z,26.33
2018-11-07T10:28:00.190Z,26.47
2018-11-07T10:29:00.251Z,26.32
2018-11-07T10:30:00.344Z,26.18
2018-11-07T10:30:59.992Z,27.18
2018-11-07T10:32:00.039Z,27.82
2018-11-07T10:33:00.084Z,27.82
2018-11-07T10:34:00.130Z,27.12
2018-11-07T10:35:00.174Z,26.80
2018-11-07T10:36:00.220Z,26.89
2018-11-07T10:37:00.366Z,27.32
2018-11-07T10:38:00.385Z,27.47
2018-11-07T10:39:00.469Z,27.67
2018-11-07T10:40:00.484Z,27.57
2018-11-07T10:41:00.445Z,28.02
2018-11-07T10:42:00.492Z,27.67
2018-11-07T10:43:00.537Z,28.07
2018-11-07T10:44:00.642Z,28.58
2018-11-07T10:45:00.628Z,28.61
2018-11-07T10:46:00.687Z,28.34
2018-11-07T10:47:00.720Z,27.69
2018-11-07T10:48:00.766Z,27.59
2018-11-07T10:49:00.811Z,27.69
2018-11-07T10:50:00.857Z,28.12
2018-11-07T10:51:00.905Z,28.30
2018-11-07T10:52:00.948Z,28.36
2018-11-07T10:53:00.994Z,28.80
2018-11-07T10:54:01.043Z,28.74
2018-11-07T10:55:01.088Z,28.59
2018-11-07T10:56:01.134Z,28.37
2018-11-07T10:57:01.183Z,29.19
2018-11-07T10:58:01.222Z,29.87
2018-11-07T10:59:01.268Z,30.31
2018-11-07T11:00:01.317Z,30.80
2018-11-07T11:01:01.360Z,29.49
2018-11-07T11:02:01.406Z,29.80
2018-11-07T11:03:01.451Z,29.53
2018-11-07T11:04:01.501Z,29.97
2018-11-07T11:05:01.583Z,29.74
2018-11-07T11:06:01.590Z,30.00
2018-11-07T11:07:01.636Z,30.02
2018-11-07T11:08:01.681Z,29.64
2018-11-07T11:09:01.725Z,27.57
2018-11-07T11:10:01.773Z,28.19
2018-11-07T11:11:01.877Z,29.12
2018-11-07T11:12:01.866Z,30.65
2018-11-07T11:13:01.918Z,30.61
2018-11-07T11:14:01.979Z,31.16
2018-11-07T11:15:02.005Z,31.13
2018-11-07T11:16:02.051Z,31.53
2018-11-07T11:17:02.192Z,31.10
2018-11-07T11:18:02.145Z,31.16
2018-11-07T11:19:02.191Z,31.56
2018-11-07T11:20:02.238Z,31.53
2018-11-07T11:21:02.286Z,31.80
2018-11-07T11:22:02.332Z,32.22
2018-11-07T11:23:02.379Z,32.60
2018-11-07T11:24:02.428Z,31.39
2018-11-07T11:25:02.475Z,32.13
2018-11-07T11:26:02.523Z,31.63
2018-11-07T11:27:02.569Z,31.85
2018-11-07T11:28:02.616Z,31.17
2018-11-07T11:29:02.664Z,30.86
2018-11-07T11:30:02.718Z,29.83
2018-11-07T11:31:02.759Z,29.98
2018-11-07T11:32:02.808Z,31.66
2018-11-07T11:33:02.854Z,32.74
2018-11-07T11:34:03.021Z,33.23
2018-11-07T11:35:03.099Z,33.66
2018-11-07T11:36:02.997Z,33.87
2018-11-07T11:37:03.046Z,34.10
2018-11-07T11:38:03.095Z,33.63
2018-11-07T11:39:03.141Z,32.70
2018-11-07T11:40:03.191Z,32.94
2018-11-07T11:41:03.310Z,31.72
2018-11-07T11:42:03.288Z,31.80
2018-11-07T11:43:50.908Z,32.59
2018-11-07T11:44:50.958Z,31.89
2018-11-07T11:45:51.004Z,31.66
2018-11-07T11:46:51.054Z,32.51
2018-11-07T11:47:51.102Z,31.63
2018-11-07T11:48:51.150Z,30.80
2018-11-07T11:49:51.199Z,29.51
2018-11-07T11:50:51.247Z,30.08
2018-11-07T11:51:51.295Z,28.62
2018-11-07T11:52:51.343Z,29.06
2018-11-07T11:53:51.390Z,28.41
2018-11-07T11:54:51.440Z,28.33
2018-11-07T11:55:51.487Z,26.35
2018-11-07T11:57:51.581Z,28.14
2018-11-07T11:58:51.707Z,27.93
2018-11-07T11:59:51.974Z,28.46
2018-11-07T12:00:51.724Z,29.65
2018-11-07T12:01:51.771Z,29.04
2018-11-07T12:02:51.818Z,28.34
2018-11-07T12:03:51.863Z,28.55
2018-11-07T12:04:51.910Z,27.14
2018-11-07T12:05:51.956Z,27.37
2018-11-07T12:06:52.004Z,27.41
2018-11-07T12:07:52.049Z,27.18
2018-11-07T12:08:52.131Z,27.17
2018-11-07T12:09:52.139Z,27.94
2018-11-07T12:10:52.186Z,28.29
2018-11-07T12:11:52.231Z,27.41
2018-11-07T12:12:52.276Z,27.88
2018-11-07T12:13:52.321Z,28.14
2018-11-07T12:14:52.366Z,28.30
2018-11-07T12:15:52.412Z,29.09
2018-11-07T12:16:52.457Z,29.52
2018-11-07T12:17:52.507Z,29.60
2018-11-07T12:18:52.547Z,29.46
2018-11-07T12:19:52.594Z,28.00
2018-11-07T12:20:52.636Z,28.74
2018-11-07T12:21:52.681Z,29.12
2018-11-07T12:22:52.726Z,29.34
2018-11-07T12:23:52.771Z,28.73
2018-11-07T12:24:52.815Z,27.81
2018-11-07T12:25:52.859Z,26.94
2018-11-07T12:26:52.915Z,26.81
2018-11-07T12:27:52.949Z,26.57
2018-11-07T12:28:52.994Z,26.65
2018-11-07T12:29:53.038Z,26.70
2018-11-07T12:30:53.082Z,26.89
2018-11-07T12:31:53.127Z,27.18
2018-11-07T12:32:53.174Z,27.27
2018-11-07T12:33:53.214Z,26.85
2018-11-07T12:34:53.258Z,27.21
2018-11-07T12:35:53.304Z,27.49
2018-11-07T12:36:53.347Z,27.77
2018-11-07T12:37:53.387Z,27.43
2018-11-07T12:38:53.431Z,27.31
2018-11-07T12:39:53.479Z,27.65
2018-11-07T12:40:53.522Z,27.78
2018-11-07T12:41:53.560Z,28.02
2018-11-07T12:42:53.771Z,28.77
2018-11-07T12:43:53.652Z,29.78
2018-11-07T12:44:53.693Z,30.26
2018-11-07T12:45:53.736Z,31.26
2018-11-07T12:46:53.779Z,31.19
2018-11-07T12:47:53.822Z,31.56
2018-11-07T12:48:53.870Z,31.96
2018-11-07T12:49:54.066Z,32.43
2018-11-07T12:50:53.955Z,32.70
2018-11-07T12:51:54.000Z,32.25
2018-11-07T12:52:54.257Z,31.68
2018-11-07T12:53:54.112Z,30.67
2018-11-07T12:54:54.133Z,29.90
2018-11-07T12:55:54.202Z,27.43
2018-11-07T12:56:54.282Z,27.34
2018-11-07T12:57:54.388Z,27.55
2018-11-07T12:58:54.336Z,28.77
2018-11-07T12:59:54.558Z,29.41
2018-11-07T13:00:54.399Z,29.30
2018-11-07T13:01:54.443Z,28.96
2018-11-07T13:02:54.533Z,29.00
2018-11-07T13:03:54.553Z,28.98
2018-11-07T13:04:54.784Z,28.55
2018-11-07T13:05:54.641Z,28.66
2018-11-07T13:06:54.890Z,28.96
2018-11-07T13:08:55.082Z,28.93
2018-11-07T13:10:54.841Z,28.92